Time,TemperatureF,DewpointF,PressureIn,WindDirection,WindDirectionDegrees,WindSpeedMPH,WindSpeedGustMPH,Humidity,HourlyPrecipIn,Conditions,Clouds,dailyrainin,SoftwareType,DateUTC
2013-03-06 00:01:00,12.0,-5.0,30.40,NE,34,1.0,-999.0,46,-99.99,,,-99.99,,2013-03-06 07:01:00,
2013-03-06 00:11:00,12.0,-5.0,30.40,NE,34,1.0,-999.0,46,-99.99,,,-99.99,,2013-03-06 07:11:00,
2013-03-06 00:22:00,13.0,-5.0,30.38,NE,34,1.0,-999.0,44,-99.99,,,-99.99,,2013-03-06 07:22:00,
2013-03-06 00:32:00,14.0,-2.0,30.38,NE,34,1.0,-999.0,48,-99.99,,,-99.99,,2013-03-06 07:32:00,
2013-03-06 00:42:00,14.0,-2.0,30.38,NE,34,1.0,-999.0,48,-99.99,,,-99.99,,2013-03-06 07:42:00,
2013-03-06 00:52:00,14.0,-2.0,30.38,NE,34,1.0,-999.0,49,-99.99,,,-99.99,,2013-03-06 07:52:00,
2013-03-06 01:01:00,14.0,-5.0,30.37,NE,55,1.0,-999.0,42,-99.99,,,-99.99,,2013-03-06 08:01:00,
2013-03-06 01:11:00,14.0,-5.0,30.37,NE,55,1.0,-999.0,42,-99.99,,,-99.99,,2013-03-06 08:11:00,
2013-03-06 01:21:00,18.0,-3.0,30.37,East,79,1.0,-999.0,38,-99.99,,,-99.99,,2013-03-06 08:21:00,
2013-03-06 01:32:00,22.0,-3.0,30.37,ESE,116,1.0,-999.0,32,-99.99,,,-99.99,,2013-03-06 08:32:00,
2013-03-06 01:42:00,22.0,-3.0,30.37,ESE,116,1.0,-999.0,32,-99.99,,,-99.99,,2013-03-06 08:42:00,
2013-03-06 01:52:00,24.0,-2.0,30.37,ESE,116,1.0,-999.0,31,-99.99,,,-99.99,,2013-03-06 08:52:00,
2013-03-06 02:01:00,23.0,-2.0,30.37,ESE,116,1.0,-999.0,33,-99.99,,,-99.99,,2013-03-06 09:01:00,
2013-03-06 02:12:00,23.0,-2.0,30.37,ESE,116,1.0,-999.0,33,-99.99,,,-99.99,,2013-03-06 09:12:00,
2013-03-06 02:21:00,22.0,-2.0,30.36,ESE,116,1.0,-999.0,34,-99.99,,,-99.99,,2013-03-06 09:21:00,
2013-03-06 02:31:00,21.0,-3.0,30.34,ESE,116,0.0,-999.0,34,-99.99,,,-99.99,,2013-03-06 09:31:00,
2013-03-06 02:42:00,21.0,-3.0,30.34,ESE,116,0.0,-999.0,34,-99.99,,,-99.99,,2013-03-06 09:42:00,
2013-03-06 02:52:00,19.0,-4.0,30.33,ESE,116,0.0,-999.0,35,-99.99,,,-99.99,,2013-03-06 09:52:00,
2013-03-06 03:01:00,18.0,-4.0,30.33,ESE,116,1.0,-999.0,36,-99.99,,,-99.99,,2013-03-06 10:01:00,
2013-03-06 03:11:00,18.0,-4.0,30.33,ESE,116,1.0,-999.0,36,-99.99,,,-99.99,,2013-03-06 10:11:00,
2013-03-06 03:21:00,18.0,-4.0,30.32,ESE,116,0.0,-999.0,36,-99.99,,,-99.99,,2013-03-06 10:21:00,
2013-03-06 03:31:00,16.0,-3.0,30.32,ESE,116,0.0,-999.0,41,-99.99,,,-99.99,,2013-03-06 10:31:00,
2013-03-06 03:42:00,16.0,-3.0,30.32,ESE,116,0.0,-999.0,41,-99.99,,,-99.99,,2013-03-06 10:42:00,
2013-03-06 03:52:00,14.0,-4.0,30.31,ESE,116,1.0,-999.0,44,-99.99,,,-99.99,,2013-03-06 10:52:00,
2013-03-06 04:02:00,12.0,-4.0,30.30,ESE,116,1.0,-999.0,48,-99.99,,,-99.99,,2013-03-06 11:02:00,
2013-03-06 04:11:00,12.0,-4.0,30.30,ESE,116,1.0,-999.0,48,-99.99,,,-99.99,,2013-03-06 11:11:00,
2013-03-06 04:22:00,12.0,-3.0,30.30,ESE,116,1.0,-999.0,50,-99.99,,,-99.99,,2013-03-06 11:22:00,
2013-03-06 04:32:00,11.0,-4.0,30.30,ESE,116,1.0,-999.0,51,-99.99,,,-99.99,,2013-03-06 11:32:00,
2013-03-06 04:42:00,11.0,-4.0,30.30,ESE,116,1.0,-999.0,51,-99.99,,,-99.99,,2013-03-06 11:42:00,
2013-03-06 04:52:00,12.0,-3.0,30.30,ESE,116,1.0,-999.0,50,-99.99,,,-99.99,,2013-03-06 11:52:00,
2013-03-06 05:02:00,13.0,-3.0,30.29,ESE,116,1.0,-999.0,49,-99.99,,,-99.99,,2013-03-06 12:02:00,
2013-03-06 05:11:00,13.0,-3.0,30.29,ESE,116,1.0,-999.0,49,-99.99,,,-99.99,,2013-03-06 12:11:00,
2013-03-06 05:21:00,13.0,-3.0,30.29,ESE,116,1.0,-999.0,49,-99.99,,,-99.99,,2013-03-06 12:21:00,
2013-03-06 05:32:00,14.0,-2.0,30.29,ESE,116,1.0,-999.0,49,-99.99,,,-99.99,,2013-03-06 12:32:00,
2013-03-06 05:42:00,14.0,-2.0,30.29,ESE,116,1.0,-999.0,49,-99.99,,,-99.99,,2013-03-06 12:42:00,
2013-03-06 05:52:00,13.0,-3.0,30.28,ESE,116,1.0,-999.0,49,-99.99,,,-99.99,,2013-03-06 12:52:00,
2013-03-06 06:02:00,13.0,-2.0,30.29,ESE,116,1.0,-999.0,50,-99.99,,,-99.99,,2013-03-06 13:02:00,
2013-03-06 06:11:00,13.0,-2.0,30.29,ESE,116,1.0,-999.0,50,-99.99,,,-99.99,,2013-03-06 13:11:00,
2013-03-06 06:22:00,12.0,-2.0,30.28,ESE,116,1.0,-999.0,52,-99.99,,,-99.99,,2013-03-06 13:22:00,
2013-03-06 06:32:00,13.0,-1.0,30.28,ESE,116,1.0,-999.0,52,-99.99,,,-99.99,,2013-03-06 13:32:00,
2013-03-06 06:42:00,13.0,-1.0,30.28,ESE,116,1.0,-999.0,52,-99.99,,,-99.99,,2013-03-06 13:42:00,
2013-03-06 06:52:00,14.0,-1.0,30.27,ESE,116,1.0,-999.0,51,-99.99,,,-99.99,,2013-03-06 13:52:00,
2013-03-06 07:01:00,14.0,-1.0,30.27,ESE,116,1.0,-999.0,51,-99.99,,,-99.99,,2013-03-06 14:01:00,
2013-03-06 07:11:00,14.0,-1.0,30.27,ESE,116,1.0,-999.0,51,-99.99,,,-99.99,,2013-03-06 14:11:00,
2013-03-06 07:22:00,14.0,-1.0,30.27,ESE,116,1.0,-999.0,51,-99.99,,,-99.99,,2013-03-06 14:22:00,
2013-03-06 07:32:00,14.0,0.0,30.27,ESE,116,0.0,-999.0,52,-99.99,,,-99.99,,2013-03-06 14:32:00,
2013-03-06 07:42:00,14.0,0.0,30.27,ESE,116,0.0,-999.0,52,-99.99,,,-99.99,,2013-03-06 14:42:00,
2013-03-06 07:52:00,15.0,1.0,30.26,ESE,116,0.0,-999.0,54,-99.99,,,-99.99,,2013-03-06 14:52:00,
2013-03-06 08:02:00,17.0,2.0,30.27,ESE,116,0.0,-999.0,52,-99.99,,,-99.99,,2013-03-06 15:02:00,
2013-03-06 08:11:00,17.0,2.0,30.27,ESE,116,0.0,-999.0,52,-99.99,,,-99.99,,2013-03-06 15:11:00,
2013-03-06 08:21:00,17.0,2.0,30.27,ESE,116,0.0,-999.0,52,-99.99,,,-99.99,,2013-03-06 15:21:00,
2013-03-06 08:32:00,24.0,4.0,30.29,ESE,116,0.0,-999.0,42,-99.99,,,-99.99,,2013-03-06 15:32:00,
2013-03-06 08:42:00,24.0,4.0,30.29,ESE,116,0.0,-999.0,42,-99.99,,,-99.99,,2013-03-06 15:42:00,
2013-03-06 08:52:00,26.0,4.0,30.28,SSE,164,0.0,-999.0,38,-99.99,,,-99.99,,2013-03-06 15:52:00,
2013-03-06 09:01:00,29.0,6.0,30.28,WNW,303,0.0,-999.0,37,-99.99,,,-99.99,,2013-03-06 16:01:00,
2013-03-06 09:11:00,29.0,6.0,30.28,WNW,303,0.0,-999.0,37,-99.99,,,-99.99,,2013-03-06 16:11:00,
2013-03-06 09:21:00,28.0,4.0,30.28,SW,229,1.0,-999.0,35,-99.99,,,-99.99,,2013-03-06 16:21:00,
2013-03-06 09:32:00,29.0,5.0,30.27,West,275,1.0,-999.0,35,-99.99,,,-99.99,,2013-03-06 16:32:00,
2013-03-06 09:42:00,29.0,5.0,30.27,West,275,1.0,-999.0,35,-99.99,,,-99.99,,2013-03-06 16:42:00,
2013-03-06 09:52:00,30.0,5.0,30.28,WSW,247,1.0,-999.0,34,-99.99,,,-99.99,,2013-03-06 16:52:00,
2013-03-06 10:01:00,32.0,7.0,30.27,NW,309,1.0,-999.0,34,-99.99,,,-99.99,,2013-03-06 17:01:00,
2013-03-06 10:11:00,32.0,7.0,30.27,NW,309,1.0,-999.0,34,-99.99,,,-99.99,,2013-03-06 17:11:00,
2013-03-06 10:21:00,32.0,8.0,30.26,SSW,211,1.0,-999.0,36,-99.99,,,-99.99,,2013-03-06 17:21:00,
2013-03-06 10:32:00,33.0,8.0,30.26,WSW,238,2.0,-999.0,35,-99.99,,,-99.99,,2013-03-06 17:32:00,
2013-03-06 10:42:00,33.0,8.0,30.26,WSW,238,2.0,-999.0,35,-99.99,,,-99.99,,2013-03-06 17:42:00,
2013-03-06 10:52:00,34.0,9.0,30.26,WNW,290,1.0,-999.0,34,-99.99,,,-99.99,,2013-03-06 17:52:00,
2013-03-06 11:02:00,35.0,9.0,30.25,West,281,1.0,-999.0,33,-99.99,,,-99.99,,2013-03-06 18:02:00,
2013-03-06 11:28:00,35.0,9.0,30.25,West,263,1.0,-999.0,33,-99.99,,,-99.99,,2013-03-06 18:28:00,
2013-03-06 11:42:00,37.0,11.0,30.24,West,259,2.0,-999.0,34,-99.99,,,-99.99,,2013-03-06 18:42:00,
2013-03-06 11:52:00,37.0,12.0,30.23,SW,223,2.0,-999.0,35,-99.99,,,-99.99,,2013-03-06 18:52:00,
2013-03-06 12:02:00,38.0,11.0,30.22,WSW,241,2.0,-999.0,33,-99.99,,,-99.99,,2013-03-06 19:02:00,
2013-03-06 12:11:00,38.0,11.0,30.22,WSW,241,2.0,-999.0,33,-99.99,,,-99.99,,2013-03-06 19:11:00,
2013-03-06 12:22:00,39.0,11.0,30.22,NE,44,1.0,-999.0,31,-99.99,,,-99.99,,2013-03-06 19:22:00,
2013-03-06 12:32:00,39.0,11.0,30.22,NE,44,1.0,-999.0,31,-99.99,,,-99.99,,2013-03-06 19:32:00,
2013-03-06 12:43:00,39.0,11.0,30.22,NE,44,1.0,-999.0,31,-99.99,,,-99.99,,2013-03-06 19:43:00,
2013-03-06 12:53:00,42.0,10.0,30.19,ENE,63,1.0,-999.0,27,-99.99,,,-99.99,,2013-03-06 19:53:00,
2013-03-06 13:01:00,42.0,8.0,30.18,ESE,111,3.0,-999.0,24,-99.99,,,-99.99,,2013-03-06 20:01:00,
2013-03-06 13:12:00,42.0,8.0,30.18,ESE,111,3.0,-999.0,24,-99.99,,,-99.99,,2013-03-06 20:12:00,
2013-03-06 13:22:00,43.0,8.0,30.17,ENE,75,3.0,-999.0,23,-99.99,,,-99.99,,2013-03-06 20:22:00,
2013-03-06 13:32:00,42.0,7.0,30.17,East,90,3.0,-999.0,23,-99.99,,,-99.99,,2013-03-06 20:32:00,
2013-03-06 13:42:00,42.0,7.0,30.17,East,90,3.0,-999.0,23,-99.99,,,-99.99,,2013-03-06 20:42:00,
2013-03-06 13:53:00,42.0,7.0,30.16,ENE,59,2.0,-999.0,23,-99.99,,,-99.99,,2013-03-06 20:53:00,
2013-03-06 14:02:00,43.0,8.0,30.16,SSE,152,2.0,-999.0,23,-99.99,,,-99.99,,2013-03-06 21:02:00,
2013-03-06 14:12:00,43.0,8.0,30.16,SSE,152,2.0,-999.0,23,-99.99,,,-99.99,,2013-03-06 21:12:00,
2013-03-06 14:22:00,43.0,7.0,30.15,SW,230,3.0,-999.0,22,-99.99,,,-99.99,,2013-03-06 21:22:00,
2013-03-06 14:32:00,43.0,6.0,30.15,East,88,2.0,-999.0,21,-99.99,,,-99.99,,2013-03-06 21:32:00,
2013-03-06 14:42:00,43.0,6.0,30.15,East,88,2.0,-999.0,21,-99.99,,,-99.99,,2013-03-06 21:42:00,
2013-03-06 14:52:00,43.0,10.0,30.15,West,259,2.0,-999.0,26,-99.99,,,-99.99,,2013-03-06 21:52:00,
2013-03-06 15:01:00,42.0,6.0,30.14,SSW,205,1.0,-999.0,22,-99.99,,,-99.99,,2013-03-06 22:01:00,
2013-03-06 15:11:00,42.0,6.0,30.14,SSW,205,1.0,-999.0,22,-99.99,,,-99.99,,2013-03-06 22:11:00,
2013-03-06 15:21:00,42.0,7.0,30.13,ENE,60,2.0,-999.0,23,-99.99,,,-99.99,,2013-03-06 22:21:00,
2013-03-06 15:32:00,42.0,8.0,30.14,NE,50,2.0,-999.0,24,-99.99,,,-99.99,,2013-03-06 22:32:00,
2013-03-06 15:41:00,42.0,8.0,30.14,NE,50,2.0,-999.0,24,-99.99,,,-99.99,,2013-03-06 22:41:00,
2013-03-06 15:52:00,42.0,9.0,30.13,ENE,70,3.0,-999.0,25,-99.99,,,-99.99,,2013-03-06 22:52:00,
2013-03-06 16:01:00,42.0,8.0,30.12,SSE,161,1.0,-999.0,24,-99.99,,,-99.99,,2013-03-06 23:01:00,
2013-03-06 16:11:00,42.0,8.0,30.12,SSE,161,1.0,-999.0,24,-99.99,,,-99.99,,2013-03-06 23:11:00,
2013-03-06 16:21:00,42.0,8.0,30.12,SSE,161,1.0,-999.0,24,-99.99,,,-99.99,,2013-03-06 23:21:00,
2013-03-06 16:32:00,40.0,4.0,30.13,ENE,62,3.0,-999.0,22,-99.99,,,-99.99,,2013-03-06 23:32:00,
2013-03-06 16:42:00,40.0,4.0,30.13,ENE,62,3.0,-999.0,22,-99.99,,,-99.99,,2013-03-06 23:42:00,
2013-03-06 16:52:00,39.0,5.0,30.14,NE,35,3.0,-999.0,24,-99.99,,,-99.99,,2013-03-06 23:52:00,
2013-03-06 17:01:00,38.0,5.0,30.12,ENE,65,2.0,-999.0,25,-99.99,,,-99.99,,2013-03-07 00:01:00,
2013-03-06 17:11:00,38.0,5.0,30.12,ENE,65,2.0,-999.0,25,-99.99,,,-99.99,,2013-03-07 00:11:00,
2013-03-06 17:21:00,37.0,5.0,30.13,East,96,1.0,-999.0,26,-99.99,,,-99.99,,2013-03-07 00:21:00,
2013-03-06 17:32:00,36.0,6.0,30.13,NE,54,2.0,-999.0,28,-99.99,,,-99.99,,2013-03-07 00:32:00,
2013-03-06 17:41:00,36.0,6.0,30.13,NE,54,2.0,-999.0,28,-99.99,,,-99.99,,2013-03-07 00:41:00,
2013-03-06 17:52:00,35.0,7.0,30.13,North,9,1.0,-999.0,30,-99.99,,,-99.99,,2013-03-07 00:52:00,
2013-03-06 18:01:00,34.0,8.0,30.14,ESE,113,0.0,-999.0,33,-99.99,,,-99.99,,2013-03-07 01:01:00,
2013-03-06 18:11:00,34.0,8.0,30.14,ESE,113,0.0,-999.0,33,-99.99,,,-99.99,,2013-03-07 01:11:00,
2013-03-06 18:21:00,32.0,7.0,30.15,ESE,113,0.0,-999.0,34,-99.99,,,-99.99,,2013-03-07 01:21:00,
2013-03-06 18:31:00,30.0,6.0,30.15,ESE,113,0.0,-999.0,35,-99.99,,,-99.99,,2013-03-07 01:31:00,
2013-03-06 18:41:00,30.0,6.0,30.15,ESE,113,0.0,-999.0,35,-99.99,,,-99.99,,2013-03-07 01:41:00,
2013-03-06 18:52:00,28.0,5.0,30.14,ESE,113,0.0,-999.0,36,-99.99,,,-99.99,,2013-03-07 01:52:00,
2013-03-06 19:01:00,26.0,5.0,30.14,ESE,113,0.0,-999.0,40,-99.99,,,-99.99,,2013-03-07 02:01:00,
2013-03-06 19:11:00,26.0,5.0,30.14,ESE,113,0.0,-999.0,40,-99.99,,,-99.99,,2013-03-07 02:11:00,
2013-03-06 19:21:00,25.0,6.0,30.15,ESE,113,0.0,-999.0,43,-99.99,,,-99.99,,2013-03-07 02:21:00,
2013-03-06 19:32:00,25.0,6.0,30.16,ESE,113,0.0,-999.0,43,-99.99,,,-99.99,,2013-03-07 02:32:00,
2013-03-06 19:41:00,25.0,6.0,30.16,ESE,113,0.0,-999.0,43,-99.99,,,-99.99,,2013-03-07 02:41:00,
2013-03-06 19:52:00,25.0,6.0,30.16,ESE,113,0.0,-999.0,43,-99.99,,,-99.99,,2013-03-07 02:52:00,
2013-03-06 20:02:00,25.0,5.0,30.14,ESE,113,0.0,-999.0,42,-99.99,,,-99.99,,2013-03-07 03:02:00,
2013-03-06 20:11:00,24.0,4.0,30.15,ESE,113,0.0,-999.0,42,-99.99,,,-99.99,,2013-03-07 03:11:00,
2013-03-06 20:21:00,24.0,4.0,30.15,ESE,113,0.0,-999.0,42,-99.99,,,-99.99,,2013-03-07 03:21:00,
2013-03-06 20:32:00,24.0,5.0,30.14,WSW,242,1.0,-999.0,43,-99.99,,,-99.99,,2013-03-07 03:32:00,
2013-03-06 20:42:00,24.0,5.0,30.14,WSW,242,1.0,-999.0,43,-99.99,,,-99.99,,2013-03-07 03:42:00,
2013-03-06 20:52:00,26.0,5.0,30.15,SSE,148,1.0,-999.0,40,-99.99,,,-99.99,,2013-03-07 03:52:00,
2013-03-06 21:01:00,27.0,4.0,30.14,NE,34,1.0,-999.0,37,-99.99,,,-99.99,,2013-03-07 04:01:00,
2013-03-06 21:11:00,27.0,4.0,30.14,NE,34,1.0,-999.0,37,-99.99,,,-99.99,,2013-03-07 04:11:00,
2013-03-06 21:21:00,27.0,7.0,30.14,NNE,28,1.0,-999.0,42,-99.99,,,-99.99,,2013-03-07 04:21:00,
2013-03-06 21:32:00,26.0,4.0,30.14,NNE,31,1.0,-999.0,39,-99.99,,,-99.99,,2013-03-07 04:32:00,
2013-03-06 21:42:00,26.0,4.0,30.14,NNE,31,1.0,-999.0,39,-99.99,,,-99.99,,2013-03-07 04:42:00,
2013-03-06 21:52:00,26.0,6.0,30.13,NNE,32,0.0,-999.0,41,-99.99,,,-99.99,,2013-03-07 04:52:00,
2013-03-06 22:01:00,26.0,4.0,30.13,NW,321,0.0,-999.0,39,-99.99,,,-99.99,,2013-03-07 05:01:00,
2013-03-06 22:12:00,26.0,4.0,30.13,NW,321,0.0,-999.0,39,-99.99,,,-99.99,,2013-03-07 05:12:00,
2013-03-06 22:22:00,26.0,4.0,30.12,NW,312,0.0,-999.0,39,-99.99,,,-99.99,,2013-03-07 05:22:00,
2013-03-06 22:32:00,25.0,5.0,30.11,WNW,299,1.0,-999.0,42,-99.99,,,-99.99,,2013-03-07 05:32:00,
2013-03-06 22:42:00,25.0,5.0,30.11,WNW,299,1.0,-999.0,42,-99.99,,,-99.99,,2013-03-07 05:42:00,
2013-03-06 22:52:00,25.0,5.0,30.12,WNW,303,0.0,-999.0,41,-99.99,,,-99.99,,2013-03-07 05:52:00,
2013-03-06 23:01:00,25.0,5.0,30.12,WNW,303,0.0,-999.0,41,-99.99,,,-99.99,,2013-03-07 06:01:00,
2013-03-06 23:11:00,25.0,5.0,30.12,WNW,303,0.0,-999.0,41,-99.99,,,-99.99,,2013-03-07 06:11:00,
2013-03-06 23:21:00,23.0,6.0,30.12,WNW,295,0.0,-999.0,48,-99.99,,,-99.99,,2013-03-07 06:21:00,
2013-03-06 23:32:00,22.0,4.0,30.11,WNW,295,1.0,-999.0,45,-99.99,,,-99.99,,2013-03-07 06:32:00,
2013-03-06 23:42:00,22.0,4.0,30.11,WNW,295,1.0,-999.0,45,-99.99,,,-99.99,,2013-03-07 06:42:00,
2013-03-06 23:52:00,22.0,4.0,30.11,NE,49,1.0,-999.0,46,-99.99,,,-99.99,,2013-03-07 06:52:00,